Aviation Digital Data Service (ADDS)

Output produced by METARs form (1909 UTC 26 September 2021)
found at http://www.aviationweather.gov/metar/data/
 
METAR text: KAUN 261855Z AUTO 15007KT 10SM CLR 25/06 A3002 RMK A01
Conditions at: KAUN (AUBURN MUNI , CA, US) observed 1855 UTC 26 September 2021
Temperature: 25.0°C (77°F)
Dewpoint: 6.0°C (43°F) [RH = 30%]
Pressure (altimeter): 30.02 inches Hg (1016.7 mb)
Winds: from the SSE (150 degrees) at 8 MPH (7 knots; 3.6 m/s)
Visibility: 10 or more miles (16+ km)
Ceiling: at least 12,000 feet AGL
Clouds: sky clear below 12,000 feet AGL
Weather: automated observation with no human augmentation;
there may or may not be significant weather present at this time

METAR text: KAUN 261835Z AUTO 20005KT 10SM CLR 24/09 A3003 RMK A01
Conditions at: KAUN (AUBURN MUNI , CA, US) observed 1835 UTC 26 September 2021
Temperature: 24.0°C (75°F)
Dewpoint: 9.0°C (48°F) [RH = 38%]
Pressure (altimeter): 30.03 inches Hg (1017.0 mb)
Winds: from the SSW (200 degrees) at 6 MPH (5 knots; 2.6 m/s)
Visibility: 10 or more miles (16+ km)
Ceiling: at least 12,000 feet AGL
Clouds: sky clear below 12,000 feet AGL
Weather: automated observation with no human augmentation;
there may or may not be significant weather present at this time

METAR text: KAUN 261815Z AUTO 21006KT 10SM CLR 24/09 A3002 RMK A01
Conditions at: KAUN (AUBURN MUNI , CA, US) observed 1815 UTC 26 September 2021
Temperature: 24.0°C (75°F)
Dewpoint: 9.0°C (48°F) [RH = 38%]
Pressure (altimeter): 30.02 inches Hg (1016.7 mb)
Winds: from the SSW (210 degrees) at 7 MPH (6 knots; 3.1 m/s)
Visibility: 10 or more miles (16+ km)
Ceiling: at least 12,000 feet AGL
Clouds: sky clear below 12,000 feet AGL
Weather: automated observation with no human augmentation;
there may or may not be significant weather present at this time

METAR text: KAUN 261755Z AUTO 20005KT 10SM CLR 23/08 A3002 RMK A01
Conditions at: KAUN (AUBURN MUNI , CA, US) observed 1755 UTC 26 September 2021
Temperature: 23.0°C (73°F)
Dewpoint: 8.0°C (46°F) [RH = 38%]
Pressure (altimeter): 30.02 inches Hg (1016.7 mb)
Winds: from the SSW (200 degrees) at 6 MPH (5 knots; 2.6 m/s)
Visibility: 10 or more miles (16+ km)
Ceiling: at least 12,000 feet AGL
Clouds: sky clear below 12,000 feet AGL
Weather: automated observation with no human augmentation;
there may or may not be significant weather present at this time

METAR text: KAUN 261735Z AUTO 19007KT 10SM CLR 23/06 A3002 RMK A01
Conditions at: KAUN (AUBURN MUNI , CA, US) observed 1735 UTC 26 September 2021
Temperature: 23.0°C (73°F)
Dewpoint: 6.0°C (43°F) [RH = 33%]
Pressure (altimeter): 30.02 inches Hg (1016.7 mb)
Winds: from the S (190 degrees) at 8 MPH (7 knots; 3.6 m/s)
Visibility: 10 or more miles (16+ km)
Ceiling: at least 12,000 feet AGL
Clouds: sky clear below 12,000 feet AGL
Weather: automated observation with no human augmentation;
there may or may not be significant weather present at this time

METAR text: KAUN 261715Z AUTO VRB04KT 10SM CLR 23/06 A3001 RMK A01
Conditions at: KAUN (AUBURN MUNI , CA, US) observed 1715 UTC 26 September 2021
Temperature: 23.0°C (73°F)
Dewpoint: 6.0°C (43°F) [RH = 33%]
Pressure (altimeter): 30.01 inches Hg (1016.3 mb)
Winds: variable direction winds at 5 MPH (4 knots; 2.1 m/s)
Visibility: 10 or more miles (16+ km)
Ceiling: at least 12,000 feet AGL
Clouds: sky clear below 12,000 feet AGL
Weather: automated observation with no human augmentation;
there may or may not be significant weather present at this time

METAR text: KAUN 261655Z AUTO 14003KT 10SM CLR 22/07 A3001 RMK A01
Conditions at: KAUN (AUBURN MUNI , CA, US) observed 1655 UTC 26 September 2021
Temperature: 22.0°C (72°F)
Dewpoint: 7.0°C (45°F) [RH = 38%]
Pressure (altimeter): 30.01 inches Hg (1016.3 mb)
Winds: from the SE (140 degrees) at 3 MPH (3 knots; 1.5 m/s)
Visibility: 10 or more miles (16+ km)
Ceiling: at least 12,000 feet AGL
Clouds: sky clear below 12,000 feet AGL
Weather: automated observation with no human augmentation;
there may or may not be significant weather present at this time

METAR text: KAUN 261635Z AUTO 20003KT 10SM CLR 20/08 A3001 RMK A01
Conditions at: KAUN (AUBURN MUNI , CA, US) observed 1635 UTC 26 September 2021
Temperature: 20.0°C (68°F)
Dewpoint: 8.0°C (46°F) [RH = 46%]
Pressure (altimeter): 30.01 inches Hg (1016.3 mb)
Winds: from the SSW (200 degrees) at 3 MPH (3 knots; 1.5 m/s)
Visibility: 10 or more miles (16+ km)
Ceiling: at least 12,000 feet AGL
Clouds: sky clear below 12,000 feet AGL
Weather: automated observation with no human augmentation;
there may or may not be significant weather present at this time

METAR text: KAUN 261615Z AUTO 19003KT 10SM CLR 20/07 A3000 RMK A01
Conditions at: KAUN (AUBURN MUNI , CA, US) observed 1615 UTC 26 September 2021
Temperature: 20.0°C (68°F)
Dewpoint: 7.0°C (45°F) [RH = 43%]
Pressure (altimeter): 30.00 inches Hg (1016.0 mb)
Winds: from the S (190 degrees) at 3 MPH (3 knots; 1.5 m/s)
Visibility: 10 or more miles (16+ km)
Ceiling: at least 12,000 feet AGL
Clouds: sky clear below 12,000 feet AGL
Weather: automated observation with no human augmentation;
there may or may not be significant weather present at this time

METAR text: KAUN 261555Z AUTO 17004KT 10SM CLR 19/06 A3000 RMK A01
Conditions at: KAUN (AUBURN MUNI , CA, US) observed 1555 UTC 26 September 2021
Temperature: 19.0°C (66°F)
Dewpoint: 6.0°C (43°F) [RH = 43%]
Pressure (altimeter): 30.00 inches Hg (1016.0 mb)
Winds: from the S (170 degrees) at 5 MPH (4 knots; 2.1 m/s)
Visibility: 10 or more miles (16+ km)
Ceiling: at least 12,000 feet AGL
Clouds: sky clear below 12,000 feet AGL
Weather: automated observation with no human augmentation;
there may or may not be significant weather present at this time

METAR text: KAUN 261535Z AUTO 21004KT 10SM CLR 19/05 A2999 RMK A01
Conditions at: KAUN (AUBURN MUNI , CA, US) observed 1535 UTC 26 September 2021
Temperature: 19.0°C (66°F)
Dewpoint: 5.0°C (41°F) [RH = 40%]
Pressure (altimeter): 29.99 inches Hg (1015.7 mb)
Winds: from the SSW (210 degrees) at 5 MPH (4 knots; 2.1 m/s)
Visibility: 10 or more miles (16+ km)
Ceiling: at least 12,000 feet AGL
Clouds: sky clear below 12,000 feet AGL
Weather: automated observation with no human augmentation;
there may or may not be significant weather present at this time

METAR text: KAUN 261515Z AUTO 00000KT 10SM CLR 20/04 A2999 RMK A01
Conditions at: KAUN (AUBURN MUNI , CA, US) observed 1515 UTC 26 September 2021
Temperature: 20.0°C (68°F)
Dewpoint: 4.0°C (39°F) [RH = 35%]
Pressure (altimeter): 29.99 inches Hg (1015.7 mb)
Winds: calm
Visibility: 10 or more miles (16+ km)
Ceiling: at least 12,000 feet AGL
Clouds: sky clear below 12,000 feet AGL
Weather: automated observation with no human augmentation;
there may or may not be significant weather present at this time

METAR text: KAUN 261455Z AUTO 12006KT 10SM CLR 19/04 A2998 RMK A01
Conditions at: KAUN (AUBURN MUNI , CA, US) observed 1455 UTC 26 September 2021
Temperature: 19.0°C (66°F)
Dewpoint: 4.0°C (39°F) [RH = 37%]
Pressure (altimeter): 29.98 inches Hg (1015.3 mb)
Winds: from the ESE (120 degrees) at 7 MPH (6 knots; 3.1 m/s)
Visibility: 10 or more miles (16+ km)
Ceiling: at least 12,000 feet AGL
Clouds: sky clear below 12,000 feet AGL
Weather: automated observation with no human augmentation;
there may or may not be significant weather present at this time

METAR text: KAUN 261435Z AUTO 12007KT 10SM CLR 19/04 A2998 RMK A01
Conditions at: KAUN (AUBURN MUNI , CA, US) observed 1435 UTC 26 September 2021
Temperature: 19.0°C (66°F)
Dewpoint: 4.0°C (39°F) [RH = 37%]
Pressure (altimeter): 29.98 inches Hg (1015.3 mb)
Winds: from the ESE (120 degrees) at 8 MPH (7 knots; 3.6 m/s)
Visibility: 10 or more miles (16+ km)
Ceiling: at least 12,000 feet AGL
Clouds: sky clear below 12,000 feet AGL
Weather: automated observation with no human augmentation;
there may or may not be significant weather present at this time

METAR text: KAUN 261415Z AUTO 11007KT 10SM CLR 17/04 A2997 RMK A01
Conditions at: KAUN (AUBURN MUNI , CA, US) observed 1415 UTC 26 September 2021
Temperature: 17.0°C (63°F)
Dewpoint: 4.0°C (39°F) [RH = 42%]
Pressure (altimeter): 29.97 inches Hg (1015.0 mb)
Winds: from the ESE (110 degrees) at 8 MPH (7 knots; 3.6 m/s)
Visibility: 10 or more miles (16+ km)
Ceiling: at least 12,000 feet AGL
Clouds: sky clear below 12,000 feet AGL
Weather: automated observation with no human augmentation;
there may or may not be significant weather present at this time

METAR text: KAUN 261355Z AUTO 10004KT 10SM CLR 15/05 A2998 RMK A01
Conditions at: KAUN (AUBURN MUNI , CA, US) observed 1355 UTC 26 September 2021
Temperature: 15.0°C (59°F)
Dewpoint: 5.0°C (41°F) [RH = 51%]
Pressure (altimeter): 29.98 inches Hg (1015.3 mb)
Winds: from the E (100 degrees) at 5 MPH (4 knots; 2.1 m/s)
Visibility: 10 or more miles (16+ km)
Ceiling: at least 12,000 feet AGL
Clouds: sky clear below 12,000 feet AGL
Weather: automated observation with no human augmentation;
there may or may not be significant weather present at this time

METAR text: KAUN 261335Z AUTO 00000KT 10SM CLR 15/05 A2998 RMK A01
Conditions at: KAUN (AUBURN MUNI , CA, US) observed 1335 UTC 26 September 2021
Temperature: 15.0°C (59°F)
Dewpoint: 5.0°C (41°F) [RH = 51%]
Pressure (altimeter): 29.98 inches Hg (1015.3 mb)
Winds: calm
Visibility: 10 or more miles (16+ km)
Ceiling: at least 12,000 feet AGL
Clouds: sky clear below 12,000 feet AGL
Weather: automated observation with no human augmentation;
there may or may not be significant weather present at this time

METAR text: KAUN 261315Z AUTO 00000KT 10SM CLR 15/06 A2998 RMK A01
Conditions at: KAUN (AUBURN MUNI , CA, US) observed 1315 UTC 26 September 2021
Temperature: 15.0°C (59°F)
Dewpoint: 6.0°C (43°F) [RH = 55%]
Pressure (altimeter): 29.98 inches Hg (1015.3 mb)
Winds: calm
Visibility: 10 or more miles (16+ km)
Ceiling: at least 12,000 feet AGL
Clouds: sky clear below 12,000 feet AGL
Weather: automated observation with no human augmentation;
there may or may not be significant weather present at this time

METAR text: KAUN 261255Z AUTO 00000KT 10SM CLR 15/07 A2998 RMK A01
Conditions at: KAUN (AUBURN MUNI , CA, US) observed 1255 UTC 26 September 2021
Temperature: 15.0°C (59°F)
Dewpoint: 7.0°C (45°F) [RH = 59%]
Pressure (altimeter): 29.98 inches Hg (1015.3 mb)
Winds: calm
Visibility: 10 or more miles (16+ km)
Ceiling: at least 12,000 feet AGL
Clouds: sky clear below 12,000 feet AGL
Weather: automated observation with no human augmentation;
there may or may not be significant weather present at this time

METAR text: KAUN 261235Z AUTO 26005KT 10SM CLR 17/05 A2997 RMK A01
Conditions at: KAUN (AUBURN MUNI , CA, US) observed 1235 UTC 26 September 2021
Temperature: 17.0°C (63°F)
Dewpoint: 5.0°C (41°F) [RH = 45%]
Pressure (altimeter): 29.97 inches Hg (1015.0 mb)
Winds: from the W (260 degrees) at 6 MPH (5 knots; 2.6 m/s)
Visibility: 10 or more miles (16+ km)
Ceiling: at least 12,000 feet AGL
Clouds: sky clear below 12,000 feet AGL
Weather: automated observation with no human augmentation;
there may or may not be significant weather present at this time

METAR text: KAUN 261215Z AUTO VRB03KT 10SM CLR 19/04 A2997 RMK A01
Conditions at: KAUN (AUBURN MUNI , CA, US) observed 1215 UTC 26 September 2021
Temperature: 19.0°C (66°F)
Dewpoint: 4.0°C (39°F) [RH = 37%]
Pressure (altimeter): 29.97 inches Hg (1015.0 mb)
Winds: variable direction winds at 3 MPH (3 knots; 1.5 m/s)
Visibility: 10 or more miles (16+ km)
Ceiling: at least 12,000 feet AGL
Clouds: sky clear below 12,000 feet AGL
Weather: automated observation with no human augmentation;
there may or may not be significant weather present at this time

METAR text: KAUN 261155Z AUTO 10007KT 10SM CLR 19/04 A2996 RMK A01
Conditions at: KAUN (AUBURN MUNI , CA, US) observed 1155 UTC 26 September 2021
Temperature: 19.0°C (66°F)
Dewpoint: 4.0°C (39°F) [RH = 37%]
Pressure (altimeter): 29.96 inches Hg (1014.6 mb)
Winds: from the E (100 degrees) at 8 MPH (7 knots; 3.6 m/s)
Visibility: 10 or more miles (16+ km)
Ceiling: at least 12,000 feet AGL
Clouds: sky clear below 12,000 feet AGL
Weather: automated observation with no human augmentation;
there may or may not be significant weather present at this time

METAR text: KAUN 261135Z AUTO 10009KT 10SM CLR 19/04 A2996 RMK A01
Conditions at: KAUN (AUBURN MUNI , CA, US) observed 1135 UTC 26 September 2021
Temperature: 19.0°C (66°F)
Dewpoint: 4.0°C (39°F) [RH = 37%]
Pressure (altimeter): 29.96 inches Hg (1014.6 mb)
Winds: from the E (100 degrees) at 10 MPH (9 knots; 4.6 m/s)
Visibility: 10 or more miles (16+ km)
Ceiling: at least 12,000 feet AGL
Clouds: sky clear below 12,000 feet AGL
Weather: automated observation with no human augmentation;
there may or may not be significant weather present at this time

METAR text: KAUN 261115Z AUTO 12007KT 10SM CLR 18/05 A2997 RMK A01
Conditions at: KAUN (AUBURN MUNI , CA, US) observed 1115 UTC 26 September 2021
Temperature: 18.0°C (64°F)
Dewpoint: 5.0°C (41°F) [RH = 42%]
Pressure (altimeter): 29.97 inches Hg (1015.0 mb)
Winds: from the ESE (120 degrees) at 8 MPH (7 knots; 3.6 m/s)
Visibility: 10 or more miles (16+ km)
Ceiling: at least 12,000 feet AGL
Clouds: sky clear below 12,000 feet AGL
Weather: automated observation with no human augmentation;
there may or may not be significant weather present at this time

METAR text: KAUN 261055Z AUTO 12006KT 10SM CLR 17/05 A2997 RMK A01
Conditions at: KAUN (AUBURN MUNI , CA, US) observed 1055 UTC 26 September 2021
Temperature: 17.0°C (63°F)
Dewpoint: 5.0°C (41°F) [RH = 45%]
Pressure (altimeter): 29.97 inches Hg (1015.0 mb)
Winds: from the ESE (120 degrees) at 7 MPH (6 knots; 3.1 m/s)
Visibility: 10 or more miles (16+ km)
Ceiling: at least 12,000 feet AGL
Clouds: sky clear below 12,000 feet AGL
Weather: automated observation with no human augmentation;
there may or may not be significant weather present at this time

METAR text: KAUN 261035Z AUTO 14005KT 10SM CLR 18/05 A2998 RMK A01
Conditions at: KAUN (AUBURN MUNI , CA, US) observed 1035 UTC 26 September 2021
Temperature: 18.0°C (64°F)
Dewpoint: 5.0°C (41°F) [RH = 42%]
Pressure (altimeter): 29.98 inches Hg (1015.3 mb)
Winds: from the SE (140 degrees) at 6 MPH (5 knots; 2.6 m/s)
Visibility: 10 or more miles (16+ km)
Ceiling: at least 12,000 feet AGL
Clouds: sky clear below 12,000 feet AGL
Weather: automated observation with no human augmentation;
there may or may not be significant weather present at this time

METAR text: KAUN 261015Z AUTO 00000KT 10SM CLR 19/05 A2998 RMK A01
Conditions at: KAUN (AUBURN MUNI , CA, US) observed 1015 UTC 26 September 2021
Temperature: 19.0°C (66°F)
Dewpoint: 5.0°C (41°F) [RH = 40%]
Pressure (altimeter): 29.98 inches Hg (1015.3 mb)
Winds: calm
Visibility: 10 or more miles (16+ km)
Ceiling: at least 12,000 feet AGL
Clouds: sky clear below 12,000 feet AGL
Weather: automated observation with no human augmentation;
there may or may not be significant weather present at this time

METAR text: KAUN 260955Z AUTO 14003KT 10SM CLR 19/06 A2998 RMK A01
Conditions at: KAUN (AUBURN MUNI , CA, US) observed 0955 UTC 26 September 2021
Temperature: 19.0°C (66°F)
Dewpoint: 6.0°C (43°F) [RH = 43%]
Pressure (altimeter): 29.98 inches Hg (1015.3 mb)
Winds: from the SE (140 degrees) at 3 MPH (3 knots; 1.5 m/s)
Visibility: 10 or more miles (16+ km)
Ceiling: at least 12,000 feet AGL
Clouds: sky clear below 12,000 feet AGL
Weather: automated observation with no human augmentation;
there may or may not be significant weather present at this time

METAR text: KAUN 260935Z AUTO 11006KT 10SM CLR 20/06 A2998 RMK A01
Conditions at: KAUN (AUBURN MUNI , CA, US) observed 0935 UTC 26 September 2021
Temperature: 20.0°C (68°F)
Dewpoint: 6.0°C (43°F) [RH = 40%]
Pressure (altimeter): 29.98 inches Hg (1015.3 mb)
Winds: from the ESE (110 degrees) at 7 MPH (6 knots; 3.1 m/s)
Visibility: 10 or more miles (16+ km)
Ceiling: at least 12,000 feet AGL
Clouds: sky clear below 12,000 feet AGL
Weather: automated observation with no human augmentation;
there may or may not be significant weather present at this time

METAR text: KAUN 260915Z AUTO 12006KT 10SM CLR 19/06 A2998 RMK A01
Conditions at: KAUN (AUBURN MUNI , CA, US) observed 0915 UTC 26 September 2021
Temperature: 19.0°C (66°F)
Dewpoint: 6.0°C (43°F) [RH = 43%]
Pressure (altimeter): 29.98 inches Hg (1015.3 mb)
Winds: from the ESE (120 degrees) at 7 MPH (6 knots; 3.1 m/s)
Visibility: 10 or more miles (16+ km)
Ceiling: at least 12,000 feet AGL
Clouds: sky clear below 12,000 feet AGL
Weather: automated observation with no human augmentation;
there may or may not be significant weather present at this time

METAR text: KAUN 260855Z AUTO 13006KT 10SM CLR 19/06 A2998 RMK A01
Conditions at: KAUN (AUBURN MUNI , CA, US) observed 0855 UTC 26 September 2021
Temperature: 19.0°C (66°F)
Dewpoint: 6.0°C (43°F) [RH = 43%]
Pressure (altimeter): 29.98 inches Hg (1015.3 mb)
Winds: from the SE (130 degrees) at 7 MPH (6 knots; 3.1 m/s)
Visibility: 10 or more miles (16+ km)
Ceiling: at least 12,000 feet AGL
Clouds: sky clear below 12,000 feet AGL
Weather: automated observation with no human augmentation;
there may or may not be significant weather present at this time

METAR text: KAUN 260835Z AUTO 13008KT 10SM CLR 19/07 A2998 RMK A01
Conditions at: KAUN (AUBURN MUNI , CA, US) observed 0835 UTC 26 September 2021
Temperature: 19.0°C (66°F)
Dewpoint: 7.0°C (45°F) [RH = 46%]
Pressure (altimeter): 29.98 inches Hg (1015.3 mb)
Winds: from the SE (130 degrees) at 9 MPH (8 knots; 4.1 m/s)
Visibility: 10 or more miles (16+ km)
Ceiling: at least 12,000 feet AGL
Clouds: sky clear below 12,000 feet AGL
Weather: automated observation with no human augmentation;
there may or may not be significant weather present at this time

METAR text: KAUN 260815Z AUTO 15007KT 10SM CLR 20/07 A2998 RMK A01
Conditions at: KAUN (AUBURN MUNI , CA, US) observed 0815 UTC 26 September 2021
Temperature: 20.0°C (68°F)
Dewpoint: 7.0°C (45°F) [RH = 43%]
Pressure (altimeter): 29.98 inches Hg (1015.3 mb)
Winds: from the SSE (150 degrees) at 8 MPH (7 knots; 3.6 m/s)
Visibility: 10 or more miles (16+ km)
Ceiling: at least 12,000 feet AGL
Clouds: sky clear below 12,000 feet AGL
Weather: automated observation with no human augmentation;
there may or may not be significant weather present at this time

METAR text: KAUN 260755Z AUTO 14006KT 10SM CLR 20/07 A2998 RMK A01
Conditions at: KAUN (AUBURN MUNI , CA, US) observed 0755 UTC 26 September 2021
Temperature: 20.0°C (68°F)
Dewpoint: 7.0°C (45°F) [RH = 43%]
Pressure (altimeter): 29.98 inches Hg (1015.3 mb)
Winds: from the SE (140 degrees) at 7 MPH (6 knots; 3.1 m/s)
Visibility: 10 or more miles (16+ km)
Ceiling: at least 12,000 feet AGL
Clouds: sky clear below 12,000 feet AGL
Weather: automated observation with no human augmentation;
there may or may not be significant weather present at this time

METAR text: KAUN 260735Z AUTO 15006KT 10SM CLR 21/07 A2998 RMK A01
Conditions at: KAUN (AUBURN MUNI , CA, US) observed 0735 UTC 26 September 2021
Temperature: 21.0°C (70°F)
Dewpoint: 7.0°C (45°F) [RH = 40%]
Pressure (altimeter): 29.98 inches Hg (1015.3 mb)
Winds: from the SSE (150 degrees) at 7 MPH (6 knots; 3.1 m/s)
Visibility: 10 or more miles (16+ km)
Ceiling: at least 12,000 feet AGL
Clouds: sky clear below 12,000 feet AGL
Weather: automated observation with no human augmentation;
there may or may not be significant weather present at this time

METAR text: KAUN 260715Z AUTO 13006KT 10SM CLR 21/07 A2997 RMK A01
Conditions at: KAUN (AUBURN MUNI , CA, US) observed 0715 UTC 26 September 2021
Temperature: 21.0°C (70°F)
Dewpoint: 7.0°C (45°F) [RH = 40%]
Pressure (altimeter): 29.97 inches Hg (1015.0 mb)
Winds: from the SE (130 degrees) at 7 MPH (6 knots; 3.1 m/s)
Visibility: 10 or more miles (16+ km)
Ceiling: at least 12,000 feet AGL
Clouds: sky clear below 12,000 feet AGL
Weather: automated observation with no human augmentation;
there may or may not be significant weather present at this time

METAR text: KAUN 260655Z AUTO 12006KT 10SM CLR 21/07 A2997 RMK A01
Conditions at: KAUN (AUBURN MUNI , CA, US) observed 0655 UTC 26 September 2021
Temperature: 21.0°C (70°F)
Dewpoint: 7.0°C (45°F) [RH = 40%]
Pressure (altimeter): 29.97 inches Hg (1015.0 mb)
Winds: from the ESE (120 degrees) at 7 MPH (6 knots; 3.1 m/s)
Visibility: 10 or more miles (16+ km)
Ceiling: at least 12,000 feet AGL
Clouds: sky clear below 12,000 feet AGL
Weather: automated observation with no human augmentation;
there may or may not be significant weather present at this time

METAR text: KAUN 260635Z AUTO 12006KT 10SM CLR 22/08 A2998 RMK A01
Conditions at: KAUN (AUBURN MUNI , CA, US) observed 0635 UTC 26 September 2021
Temperature: 22.0°C (72°F)
Dewpoint: 8.0°C (46°F) [RH = 41%]
Pressure (altimeter): 29.98 inches Hg (1015.3 mb)
Winds: from the ESE (120 degrees) at 7 MPH (6 knots; 3.1 m/s)
Visibility: 10 or more miles (16+ km)
Ceiling: at least 12,000 feet AGL
Clouds: sky clear below 12,000 feet AGL
Weather: automated observation with no human augmentation;
there may or may not be significant weather present at this time

METAR text: KAUN 260615Z AUTO 12007KT 10SM CLR 22/08 A2997 RMK A01
Conditions at: KAUN (AUBURN MUNI , CA, US) observed 0615 UTC 26 September 2021
Temperature: 22.0°C (72°F)
Dewpoint: 8.0°C (46°F) [RH = 41%]
Pressure (altimeter): 29.97 inches Hg (1015.0 mb)
Winds: from the ESE (120 degrees) at 8 MPH (7 knots; 3.6 m/s)
Visibility: 10 or more miles (16+ km)
Ceiling: at least 12,000 feet AGL
Clouds: sky clear below 12,000 feet AGL
Weather: automated observation with no human augmentation;
there may or may not be significant weather present at this time

METAR text: KAUN 260555Z AUTO 12007KT 10SM CLR 22/08 A2997 RMK A01
Conditions at: KAUN (AUBURN MUNI , CA, US) observed 0555 UTC 26 September 2021
Temperature: 22.0°C (72°F)
Dewpoint: 8.0°C (46°F) [RH = 41%]
Pressure (altimeter): 29.97 inches Hg (1015.0 mb)
Winds: from the ESE (120 degrees) at 8 MPH (7 knots; 3.6 m/s)
Visibility: 10 or more miles (16+ km)
Ceiling: at least 12,000 feet AGL
Clouds: sky clear below 12,000 feet AGL
Weather: automated observation with no human augmentation;
there may or may not be significant weather present at this time

METAR text: KAUN 260535Z AUTO 11006KT 10SM CLR 22/08 A2997 RMK A01
Conditions at: KAUN (AUBURN MUNI , CA, US) observed 0535 UTC 26 September 2021
Temperature: 22.0°C (72°F)
Dewpoint: 8.0°C (46°F) [RH = 41%]
Pressure (altimeter): 29.97 inches Hg (1015.0 mb)
Winds: from the ESE (110 degrees) at 7 MPH (6 knots; 3.1 m/s)
Visibility: 10 or more miles (16+ km)
Ceiling: at least 12,000 feet AGL
Clouds: sky clear below 12,000 feet AGL
Weather: automated observation with no human augmentation;
there may or may not be significant weather present at this time

METAR text: KAUN 260515Z AUTO 12006KT 10SM CLR 22/09 A2996 RMK A01
Conditions at: KAUN (AUBURN MUNI , CA, US) observed 0515 UTC 26 September 2021
Temperature: 22.0°C (72°F)
Dewpoint: 9.0°C (48°F) [RH = 43%]
Pressure (altimeter): 29.96 inches Hg (1014.6 mb)
Winds: from the ESE (120 degrees) at 7 MPH (6 knots; 3.1 m/s)
Visibility: 10 or more miles (16+ km)
Ceiling: at least 12,000 feet AGL
Clouds: sky clear below 12,000 feet AGL
Weather: automated observation with no human augmentation;
there may or may not be significant weather present at this time

METAR text: KAUN 260455Z AUTO 11005KT 10SM CLR 21/08 A2996 RMK A01
Conditions at: KAUN (AUBURN MUNI , CA, US) observed 0455 UTC 26 September 2021
Temperature: 21.0°C (70°F)
Dewpoint: 8.0°C (46°F) [RH = 43%]
Pressure (altimeter): 29.96 inches Hg (1014.6 mb)
Winds: from the ESE (110 degrees) at 6 MPH (5 knots; 2.6 m/s)
Visibility: 10 or more miles (16+ km)
Ceiling: at least 12,000 feet AGL
Clouds: sky clear below 12,000 feet AGL
Weather: automated observation with no human augmentation;
there may or may not be significant weather present at this time

METAR text: KAUN 260435Z AUTO 00000KT 10SM CLR 23/09 A2996 RMK A01
Conditions at: KAUN (AUBURN MUNI , CA, US) observed 0435 UTC 26 September 2021
Temperature: 23.0°C (73°F)
Dewpoint: 9.0°C (48°F) [RH = 41%]
Pressure (altimeter): 29.96 inches Hg (1014.6 mb)
Winds: calm
Visibility: 10 or more miles (16+ km)
Ceiling: at least 12,000 feet AGL
Clouds: sky clear below 12,000 feet AGL
Weather: automated observation with no human augmentation;
there may or may not be significant weather present at this time

METAR text: KAUN 260415Z AUTO 15005KT 10SM CLR 23/09 A2996 RMK A01
Conditions at: KAUN (AUBURN MUNI , CA, US) observed 0415 UTC 26 September 2021
Temperature: 23.0°C (73°F)
Dewpoint: 9.0°C (48°F) [RH = 41%]
Pressure (altimeter): 29.96 inches Hg (1014.6 mb)
Winds: from the SSE (150 degrees) at 6 MPH (5 knots; 2.6 m/s)
Visibility: 10 or more miles (16+ km)
Ceiling: at least 12,000 feet AGL
Clouds: sky clear below 12,000 feet AGL
Weather: automated observation with no human augmentation;
there may or may not be significant weather present at this time

METAR text: KAUN 260355Z AUTO 16004KT 10SM CLR 23/09 A2996 RMK A01
Conditions at: KAUN (AUBURN MUNI , CA, US) observed 0355 UTC 26 September 2021
Temperature: 23.0°C (73°F)
Dewpoint: 9.0°C (48°F) [RH = 41%]
Pressure (altimeter): 29.96 inches Hg (1014.6 mb)
Winds: from the SSE (160 degrees) at 5 MPH (4 knots; 2.1 m/s)
Visibility: 10 or more miles (16+ km)
Ceiling: at least 12,000 feet AGL
Clouds: sky clear below 12,000 feet AGL
Weather: automated observation with no human augmentation;
there may or may not be significant weather present at this time

METAR text: KAUN 260335Z AUTO 00000KT 10SM CLR 23/09 A2995 RMK A01
Conditions at: KAUN (AUBURN MUNI , CA, US) observed 0335 UTC 26 September 2021
Temperature: 23.0°C (73°F)
Dewpoint: 9.0°C (48°F) [RH = 41%]
Pressure (altimeter): 29.95 inches Hg (1014.3 mb)
Winds: calm
Visibility: 10 or more miles (16+ km)
Ceiling: at least 12,000 feet AGL
Clouds: sky clear below 12,000 feet AGL
Weather: automated observation with no human augmentation;
there may or may not be significant weather present at this time

METAR text: KAUN 260315Z AUTO 16003KT 10SM CLR 24/09 A2995 RMK A01
Conditions at: KAUN (AUBURN MUNI , CA, US) observed 0315 UTC 26 September 2021
Temperature: 24.0°C (75°F)
Dewpoint: 9.0°C (48°F) [RH = 38%]
Pressure (altimeter): 29.95 inches Hg (1014.3 mb)
Winds: from the SSE (160 degrees) at 3 MPH (3 knots; 1.5 m/s)
Visibility: 10 or more miles (16+ km)
Ceiling: at least 12,000 feet AGL
Clouds: sky clear below 12,000 feet AGL
Weather: automated observation with no human augmentation;
there may or may not be significant weather present at this time

METAR text: KAUN 260255Z AUTO 18003KT 10SM CLR 25/08 A2995 RMK A01
Conditions at: KAUN (AUBURN MUNI , CA, US) observed 0255 UTC 26 September 2021
Temperature: 25.0°C (77°F)
Dewpoint: 8.0°C (46°F) [RH = 34%]
Pressure (altimeter): 29.95 inches Hg (1014.3 mb)
Winds: from the S (180 degrees) at 3 MPH (3 knots; 1.5 m/s)
Visibility: 10 or more miles (16+ km)
Ceiling: at least 12,000 feet AGL
Clouds: sky clear below 12,000 feet AGL
Weather: automated observation with no human augmentation;
there may or may not be significant weather present at this time

METAR text: KAUN 260235Z AUTO 00000KT 10SM CLR 25/08 A2994 RMK A01
Conditions at: KAUN (AUBURN MUNI , CA, US) observed 0235 UTC 26 September 2021
Temperature: 25.0°C (77°F)
Dewpoint: 8.0°C (46°F) [RH = 34%]
Pressure (altimeter): 29.94 inches Hg (1014.0 mb)
Winds: calm
Visibility: 10 or more miles (16+ km)
Ceiling: at least 12,000 feet AGL
Clouds: sky clear below 12,000 feet AGL
Weather: automated observation with no human augmentation;
there may or may not be significant weather present at this time

METAR text: KAUN 260215Z AUTO 19003KT 10SM CLR 24/06 A2994 RMK A01
Conditions at: KAUN (AUBURN MUNI , CA, US) observed 0215 UTC 26 September 2021
Temperature: 24.0°C (75°F)
Dewpoint: 6.0°C (43°F) [RH = 31%]
Pressure (altimeter): 29.94 inches Hg (1014.0 mb)
Winds: from the S (190 degrees) at 3 MPH (3 knots; 1.5 m/s)
Visibility: 10 or more miles (16+ km)
Ceiling: at least 12,000 feet AGL
Clouds: sky clear below 12,000 feet AGL
Weather: automated observation with no human augmentation;
there may or may not be significant weather present at this time

METAR text: KAUN 260155Z AUTO 00000KT 10SM CLR 25/06 A2994 RMK A01
Conditions at: KAUN (AUBURN MUNI , CA, US) observed 0155 UTC 26 September 2021
Temperature: 25.0°C (77°F)
Dewpoint: 6.0°C (43°F) [RH = 30%]
Pressure (altimeter): 29.94 inches Hg (1014.0 mb)
Winds: calm
Visibility: 10 or more miles (16+ km)
Ceiling: at least 12,000 feet AGL
Clouds: sky clear below 12,000 feet AGL
Weather: automated observation with no human augmentation;
there may or may not be significant weather present at this time

METAR text: KAUN 260135Z AUTO 00000KT 10SM CLR 27/06 A2994 RMK A01
Conditions at: KAUN (AUBURN MUNI , CA, US) observed 0135 UTC 26 September 2021
Temperature: 27.0°C (81°F)
Dewpoint: 6.0°C (43°F) [RH = 26%]
Pressure (altimeter): 29.94 inches Hg (1014.0 mb)
Winds: calm
Visibility: 10 or more miles (16+ km)
Ceiling: at least 12,000 feet AGL
Clouds: sky clear below 12,000 feet AGL
Weather: automated observation with no human augmentation;
there may or may not be significant weather present at this time

METAR text: KAUN 260115Z AUTO 22004KT 10SM CLR 29/06 A2994 RMK A01
Conditions at: KAUN (AUBURN MUNI , CA, US) observed 0115 UTC 26 September 2021
Temperature: 29.0°C (84°F)
Dewpoint: 6.0°C (43°F) [RH = 23%]
Pressure (altimeter): 29.94 inches Hg (1014.0 mb)
Winds: from the SW (220 degrees) at 5 MPH (4 knots; 2.1 m/s)
Visibility: 10 or more miles (16+ km)
Ceiling: at least 12,000 feet AGL
Clouds: sky clear below 12,000 feet AGL
Weather: automated observation with no human augmentation;
there may or may not be significant weather present at this time

METAR text: KAUN 260055Z AUTO 24003KT 10SM CLR 29/05 A2994 RMK A01
Conditions at: KAUN (AUBURN MUNI , CA, US) observed 0055 UTC 26 September 2021
Temperature: 29.0°C (84°F)
Dewpoint: 5.0°C (41°F) [RH = 22%]
Pressure (altimeter): 29.94 inches Hg (1014.0 mb)
Winds: from the WSW (240 degrees) at 3 MPH (3 knots; 1.5 m/s)
Visibility: 10 or more miles (16+ km)
Ceiling: at least 12,000 feet AGL
Clouds: sky clear below 12,000 feet AGL
Weather: automated observation with no human augmentation;
there may or may not be significant weather present at this time

METAR text: KAUN 260035Z AUTO 00000KT 10SM CLR 30/05 A2994 RMK A01
Conditions at: KAUN (AUBURN MUNI , CA, US) observed 0035 UTC 26 September 2021
Temperature: 30.0°C (86°F)
Dewpoint: 5.0°C (41°F) [RH = 21%]
Pressure (altimeter): 29.94 inches Hg (1014.0 mb)
Winds: calm
Visibility: 10 or more miles (16+ km)
Ceiling: at least 12,000 feet AGL
Clouds: sky clear below 12,000 feet AGL
Weather: automated observation with no human augmentation;
there may or may not be significant weather present at this time

METAR text: KAUN 260015Z AUTO 25004KT 10SM CLR 30/05 A2994 RMK A01
Conditions at: KAUN (AUBURN MUNI , CA, US) observed 0015 UTC 26 September 2021
Temperature: 30.0°C (86°F)
Dewpoint: 5.0°C (41°F) [RH = 21%]
Pressure (altimeter): 29.94 inches Hg (1014.0 mb)
Winds: from the WSW (250 degrees) at 5 MPH (4 knots; 2.1 m/s)
Visibility: 10 or more miles (16+ km)
Ceiling: at least 12,000 feet AGL
Clouds: sky clear below 12,000 feet AGL
Weather: automated observation with no human augmentation;
there may or may not be significant weather present at this time

METAR text: KAUN 252355Z AUTO 24006KT 10SM CLR 30/05 A2995 RMK A01
Conditions at: KAUN (AUBURN MUNI , CA, US) observed 2355 UTC 25 September 2021
Temperature: 30.0°C (86°F)
Dewpoint: 5.0°C (41°F) [RH = 21%]
Pressure (altimeter): 29.95 inches Hg (1014.3 mb)
Winds: from the WSW (240 degrees) at 7 MPH (6 knots; 3.1 m/s)
Visibility: 10 or more miles (16+ km)
Ceiling: at least 12,000 feet AGL
Clouds: sky clear below 12,000 feet AGL
Weather: automated observation with no human augmentation;
there may or may not be significant weather present at this time

METAR text: KAUN 252335Z AUTO 25006KT 10SM CLR 31/04 A2995 RMK A01
Conditions at: KAUN (AUBURN MUNI , CA, US) observed 2335 UTC 25 September 2021
Temperature: 31.0°C (88°F)
Dewpoint: 4.0°C (39°F) [RH = 18%]
Pressure (altimeter): 29.95 inches Hg (1014.3 mb)
Winds: from the WSW (250 degrees) at 7 MPH (6 knots; 3.1 m/s)
Visibility: 10 or more miles (16+ km)
Ceiling: at least 12,000 feet AGL
Clouds: sky clear below 12,000 feet AGL
Weather: automated observation with no human augmentation;
there may or may not be significant weather present at this time

METAR text: KAUN 252315Z AUTO 27005KT 10SM CLR 31/04 A2995 RMK A01
Conditions at: KAUN (AUBURN MUNI , CA, US) observed 2315 UTC 25 September 2021
Temperature: 31.0°C (88°F)
Dewpoint: 4.0°C (39°F) [RH = 18%]
Pressure (altimeter): 29.95 inches Hg (1014.3 mb)
Winds: from the W (270 degrees) at 6 MPH (5 knots; 2.6 m/s)
Visibility: 10 or more miles (16+ km)
Ceiling: at least 12,000 feet AGL
Clouds: sky clear below 12,000 feet AGL
Weather: automated observation with no human augmentation;
there may or may not be significant weather present at this time

METAR text: KAUN 252255Z AUTO 22005KT 10SM CLR 31/04 A2995 RMK A01
Conditions at: KAUN (AUBURN MUNI , CA, US) observed 2255 UTC 25 September 2021
Temperature: 31.0°C (88°F)
Dewpoint: 4.0°C (39°F) [RH = 18%]
Pressure (altimeter): 29.95 inches Hg (1014.3 mb)
Winds: from the SW (220 degrees) at 6 MPH (5 knots; 2.6 m/s)
Visibility: 10 or more miles (16+ km)
Ceiling: at least 12,000 feet AGL
Clouds: sky clear below 12,000 feet AGL
Weather: automated observation with no human augmentation;
there may or may not be significant weather present at this time

METAR text: KAUN 252235Z AUTO 26006KT 10SM CLR 31/02 A2996 RMK A01
Conditions at: KAUN (AUBURN MUNI , CA, US) observed 2235 UTC 25 September 2021
Temperature: 31.0°C (88°F)
Dewpoint: 2.0°C (36°F) [RH = 16%]
Pressure (altimeter): 29.96 inches Hg (1014.6 mb)
Winds: from the W (260 degrees) at 7 MPH (6 knots; 3.1 m/s)
Visibility: 10 or more miles (16+ km)
Ceiling: at least 12,000 feet AGL
Clouds: sky clear below 12,000 feet AGL
Weather: automated observation with no human augmentation;
there may or may not be significant weather present at this time

METAR text: KAUN 252215Z AUTO 26006KT 10SM CLR 31/03 A2996 RMK A01
Conditions at: KAUN (AUBURN MUNI , CA, US) observed 2215 UTC 25 September 2021
Temperature: 31.0°C (88°F)
Dewpoint: 3.0°C (37°F) [RH = 17%]
Pressure (altimeter): 29.96 inches Hg (1014.6 mb)
Winds: from the W (260 degrees) at 7 MPH (6 knots; 3.1 m/s)
Visibility: 10 or more miles (16+ km)
Ceiling: at least 12,000 feet AGL
Clouds: sky clear below 12,000 feet AGL
Weather: automated observation with no human augmentation;
there may or may not be significant weather present at this time

METAR text: KAUN 252155Z AUTO VRB05KT 10SM CLR 31/03 A2996 RMK A01
Conditions at: KAUN (AUBURN MUNI , CA, US) observed 2155 UTC 25 September 2021
Temperature: 31.0°C (88°F)
Dewpoint: 3.0°C (37°F) [RH = 17%]
Pressure (altimeter): 29.96 inches Hg (1014.6 mb)
Winds: variable direction winds at 6 MPH (5 knots; 2.6 m/s)
Visibility: 10 or more miles (16+ km)
Ceiling: at least 12,000 feet AGL
Clouds: sky clear below 12,000 feet AGL
Weather: automated observation with no human augmentation;
there may or may not be significant weather present at this time

METAR text: KAUN 252135Z AUTO 25007KT 10SM CLR 31/04 A2997 RMK A01
Conditions at: KAUN (AUBURN MUNI , CA, US) observed 2135 UTC 25 September 2021
Temperature: 31.0°C (88°F)
Dewpoint: 4.0°C (39°F) [RH = 18%]
Pressure (altimeter): 29.97 inches Hg (1015.0 mb)
Winds: from the WSW (250 degrees) at 8 MPH (7 knots; 3.6 m/s)
Visibility: 10 or more miles (16+ km)
Ceiling: at least 12,000 feet AGL
Clouds: sky clear below 12,000 feet AGL
Weather: automated observation with no human augmentation;
there may or may not be significant weather present at this time

METAR text: KAUN 252115Z AUTO 23005KT 10SM CLR 31/04 A2998 RMK A01
Conditions at: KAUN (AUBURN MUNI , CA, US) observed 2115 UTC 25 September 2021
Temperature: 31.0°C (88°F)
Dewpoint: 4.0°C (39°F) [RH = 18%]
Pressure (altimeter): 29.98 inches Hg (1015.3 mb)
Winds: from the SW (230 degrees) at 6 MPH (5 knots; 2.6 m/s)
Visibility: 10 or more miles (16+ km)
Ceiling: at least 12,000 feet AGL
Clouds: sky clear below 12,000 feet AGL
Weather: automated observation with no human augmentation;
there may or may not be significant weather present at this time

METAR text: KAUN 252055Z AUTO 24006KT 10SM CLR 31/02 A2999 RMK A01
Conditions at: KAUN (AUBURN MUNI , CA, US) observed 2055 UTC 25 September 2021
Temperature: 31.0°C (88°F)
Dewpoint: 2.0°C (36°F) [RH = 16%]
Pressure (altimeter): 29.99 inches Hg (1015.7 mb)
Winds: from the WSW (240 degrees) at 7 MPH (6 knots; 3.1 m/s)
Visibility: 10 or more miles (16+ km)
Ceiling: at least 12,000 feet AGL
Clouds: sky clear below 12,000 feet AGL
Weather: automated observation with no human augmentation;
there may or may not be significant weather present at this time

METAR text: KAUN 252035Z AUTO 24006KT 10SM CLR 30/02 A2999 RMK A01
Conditions at: KAUN (AUBURN MUNI , CA, US) observed 2035 UTC 25 September 2021
Temperature: 30.0°C (86°F)
Dewpoint: 2.0°C (36°F) [RH = 17%]
Pressure (altimeter): 29.99 inches Hg (1015.7 mb)
Winds: from the WSW (240 degrees) at 7 MPH (6 knots; 3.1 m/s)
Visibility: 10 or more miles (16+ km)
Ceiling: at least 12,000 feet AGL
Clouds: sky clear below 12,000 feet AGL
Weather: automated observation with no human augmentation;
there may or may not be significant weather present at this time

METAR text: KAUN 252015Z AUTO 21006KT 10SM CLR 31/00 A3000 RMK A01
Conditions at: KAUN (AUBURN MUNI , CA, US) observed 2015 UTC 25 September 2021
Temperature: 31.0°C (88°F)
Dewpoint: 0.0°C (32°F) [RH = 14%]
Pressure (altimeter): 30.00 inches Hg (1016.0 mb)
Winds: from the SSW (210 degrees) at 7 MPH (6 knots; 3.1 m/s)
Visibility: 10 or more miles (16+ km)
Ceiling: at least 12,000 feet AGL
Clouds: sky clear below 12,000 feet AGL
Weather: automated observation with no human augmentation;
there may or may not be significant weather present at this time

METAR text: KAUN 251955Z AUTO 23007KT 10SM CLR 30/04 A3000 RMK A01
Conditions at: KAUN (AUBURN MUNI , CA, US) observed 1955 UTC 25 September 2021
Temperature: 30.0°C (86°F)
Dewpoint: 4.0°C (39°F) [RH = 19%]
Pressure (altimeter): 30.00 inches Hg (1016.0 mb)
Winds: from the SW (230 degrees) at 8 MPH (7 knots; 3.6 m/s)
Visibility: 10 or more miles (16+ km)
Ceiling: at least 12,000 feet AGL
Clouds: sky clear below 12,000 feet AGL
Weather: automated observation with no human augmentation;
there may or may not be significant weather present at this time

METAR text: KAUN 251935Z AUTO VRB05KT 10SM CLR 30/04 A3000 RMK A01
Conditions at: KAUN (AUBURN MUNI , CA, US) observed 1935 UTC 25 September 2021
Temperature: 30.0°C (86°F)
Dewpoint: 4.0°C (39°F) [RH = 19%]
Pressure (altimeter): 30.00 inches Hg (1016.0 mb)
Winds: variable direction winds at 6 MPH (5 knots; 2.6 m/s)
Visibility: 10 or more miles (16+ km)
Ceiling: at least 12,000 feet AGL
Clouds: sky clear below 12,000 feet AGL
Weather: automated observation with no human augmentation;
there may or may not be significant weather present at this time

METAR text: KAUN 251915Z AUTO VRB05KT 10SM CLR 30/03 A3000 RMK A01
Conditions at: KAUN (AUBURN MUNI , CA, US) observed 1915 UTC 25 September 2021
Temperature: 30.0°C (86°F)
Dewpoint: 3.0°C (37°F) [RH = 18%]
Pressure (altimeter): 30.00 inches Hg (1016.0 mb)
Winds: variable direction winds at 6 MPH (5 knots; 2.6 m/s)
Visibility: 10 or more miles (16+ km)
Ceiling: at least 12,000 feet AGL
Clouds: sky clear below 12,000 feet AGL
Weather: automated observation with no human augmentation;
there may or may not be significant weather present at this time

METAR text: KAUN 251855Z AUTO VRB05KT 10SM CLR 29/03 A3001 RMK A01
Conditions at: KAUN (AUBURN MUNI , CA, US) observed 1855 UTC 25 September 2021
Temperature: 29.0°C (84°F)
Dewpoint: 3.0°C (37°F) [RH = 19%]
Pressure (altimeter): 30.01 inches Hg (1016.3 mb)
Winds: variable direction winds at 6 MPH (5 knots; 2.6 m/s)
Visibility: 10 or more miles (16+ km)
Ceiling: at least 12,000 feet AGL
Clouds: sky clear below 12,000 feet AGL
Weather: automated observation with no human augmentation;
there may or may not be significant weather present at this time

METAR text: KAUN 251835Z AUTO 21005KT 10SM CLR 29/06 A3001 RMK A01
Conditions at: KAUN (AUBURN MUNI , CA, US) observed 1835 UTC 25 September 2021
Temperature: 29.0°C (84°F)
Dewpoint: 6.0°C (43°F) [RH = 23%]
Pressure (altimeter): 30.01 inches Hg (1016.3 mb)
Winds: from the SSW (210 degrees) at 6 MPH (5 knots; 2.6 m/s)
Visibility: 10 or more miles (16+ km)
Ceiling: at least 12,000 feet AGL
Clouds: sky clear below 12,000 feet AGL
Weather: automated observation with no human augmentation;
there may or may not be significant weather present at this time

METAR text: KAUN 251815Z AUTO 22003KT 10SM CLR 29/04 A3001 RMK A01
Conditions at: KAUN (AUBURN MUNI , CA, US) observed 1815 UTC 25 September 2021
Temperature: 29.0°C (84°F)
Dewpoint: 4.0°C (39°F) [RH = 20%]
Pressure (altimeter): 30.01 inches Hg (1016.3 mb)
Winds: from the SW (220 degrees) at 3 MPH (3 knots; 1.5 m/s)
Visibility: 10 or more miles (16+ km)
Ceiling: at least 12,000 feet AGL
Clouds: sky clear below 12,000 feet AGL
Weather: automated observation with no human augmentation;
there may or may not be significant weather present at this time

METAR text: KAUN 251755Z AUTO 19003KT 10SM CLR 29/04 A3001 RMK A01
Conditions at: KAUN (AUBURN MUNI , CA, US) observed 1755 UTC 25 September 2021
Temperature: 29.0°C (84°F)
Dewpoint: 4.0°C (39°F) [RH = 20%]
Pressure (altimeter): 30.01 inches Hg (1016.3 mb)
Winds: from the S (190 degrees) at 3 MPH (3 knots; 1.5 m/s)
Visibility: 10 or more miles (16+ km)
Ceiling: at least 12,000 feet AGL
Clouds: sky clear below 12,000 feet AGL
Weather: automated observation with no human augmentation;
there may or may not be significant weather present at this time

METAR text: KAUN 251735Z AUTO 18004KT 10SM CLR 28/04 A3001 RMK A01
Conditions at: KAUN (AUBURN MUNI , CA, US) observed 1735 UTC 25 September 2021
Temperature: 28.0°C (82°F)
Dewpoint: 4.0°C (39°F) [RH = 22%]
Pressure (altimeter): 30.01 inches Hg (1016.3 mb)
Winds: from the S (180 degrees) at 5 MPH (4 knots; 2.1 m/s)
Visibility: 10 or more miles (16+ km)
Ceiling: at least 12,000 feet AGL
Clouds: sky clear below 12,000 feet AGL
Weather: automated observation with no human augmentation;
there may or may not be significant weather present at this time

METAR text: KAUN 251715Z AUTO 00000KT 10SM CLR 28/04 A3001 RMK A01
Conditions at: KAUN (AUBURN MUNI , CA, US) observed 1715 UTC 25 September 2021
Temperature: 28.0°C (82°F)
Dewpoint: 4.0°C (39°F) [RH = 22%]
Pressure (altimeter): 30.01 inches Hg (1016.3 mb)
Winds: calm
Visibility: 10 or more miles (16+ km)
Ceiling: at least 12,000 feet AGL
Clouds: sky clear below 12,000 feet AGL
Weather: automated observation with no human augmentation;
there may or may not be significant weather present at this time

METAR text: KAUN 251655Z AUTO 11003KT 9SM CLR 28/04 A3001 RMK A01
Conditions at: KAUN (AUBURN MUNI , CA, US) observed 1655 UTC 25 September 2021
Temperature: 28.0°C (82°F)
Dewpoint: 4.0°C (39°F) [RH = 22%]
Pressure (altimeter): 30.01 inches Hg (1016.3 mb)
Winds: from the ESE (110 degrees) at 3 MPH (3 knots; 1.5 m/s)
Visibility: 9 miles (14 km)
Ceiling: at least 12,000 feet AGL
Clouds: sky clear below 12,000 feet AGL
Weather: automated observation with no human augmentation;
there may or may not be significant weather present at this time

METAR text: KAUN 251635Z AUTO 09006KT 9SM CLR 26/04 A3001 RMK A01
Conditions at: KAUN (AUBURN MUNI , CA, US) observed 1635 UTC 25 September 2021
Temperature: 26.0°C (79°F)
Dewpoint: 4.0°C (39°F) [RH = 24%]
Pressure (altimeter): 30.01 inches Hg (1016.3 mb)
Winds: from the E (90 degrees) at 7 MPH (6 knots; 3.1 m/s)
Visibility: 9 miles (14 km)
Ceiling: at least 12,000 feet AGL
Clouds: sky clear below 12,000 feet AGL
Weather: automated observation with no human augmentation;
there may or may not be significant weather present at this time

METAR text: KAUN 251615Z AUTO 09007KT 10SM CLR 25/04 A3001 RMK A01
Conditions at: KAUN (AUBURN MUNI , CA, US) observed 1615 UTC 25 September 2021
Temperature: 25.0°C (77°F)
Dewpoint: 4.0°C (39°F) [RH = 26%]
Pressure (altimeter): 30.01 inches Hg (1016.3 mb)
Winds: from the E (90 degrees) at 8 MPH (7 knots; 3.6 m/s)
Visibility: 10 or more miles (16+ km)
Ceiling: at least 12,000 feet AGL
Clouds: sky clear below 12,000 feet AGL
Weather: automated observation with no human augmentation;
there may or may not be significant weather present at this time

METAR text: KAUN 251555Z AUTO 11007KT 10SM CLR 24/04 A3000 RMK A01
Conditions at: KAUN (AUBURN MUNI , CA, US) observed 1555 UTC 25 September 2021
Temperature: 24.0°C (75°F)
Dewpoint: 4.0°C (39°F) [RH = 27%]
Pressure (altimeter): 30.00 inches Hg (1016.0 mb)
Winds: from the ESE (110 degrees) at 8 MPH (7 knots; 3.6 m/s)
Visibility: 10 or more miles (16+ km)
Ceiling: at least 12,000 feet AGL
Clouds: sky clear below 12,000 feet AGL
Weather: automated observation with no human augmentation;
there may or may not be significant weather present at this time

METAR text: KAUN 251535Z AUTO 12005KT 10SM CLR 23/04 A3000 RMK A01
Conditions at: KAUN (AUBURN MUNI , CA, US) observed 1535 UTC 25 September 2021
Temperature: 23.0°C (73°F)
Dewpoint: 4.0°C (39°F) [RH = 29%]
Pressure (altimeter): 30.00 inches Hg (1016.0 mb)
Winds: from the ESE (120 degrees) at 6 MPH (5 knots; 2.6 m/s)
Visibility: 10 or more miles (16+ km)
Ceiling: at least 12,000 feet AGL
Clouds: sky clear below 12,000 feet AGL
Weather: automated observation with no human augmentation;
there may or may not be significant weather present at this time

METAR text: KAUN 251515Z AUTO 11004KT 9SM CLR 22/04 A3001 RMK A01
Conditions at: KAUN (AUBURN MUNI , CA, US) observed 1515 UTC 25 September 2021
Temperature: 22.0°C (72°F)
Dewpoint: 4.0°C (39°F) [RH = 31%]
Pressure (altimeter): 30.01 inches Hg (1016.3 mb)
Winds: from the ESE (110 degrees) at 5 MPH (4 knots; 2.1 m/s)
Visibility: 9 miles (14 km)
Ceiling: at least 12,000 feet AGL
Clouds: sky clear below 12,000 feet AGL
Weather: automated observation with no human augmentation;
there may or may not be significant weather present at this time

METAR text: KAUN 251455Z AUTO 00000KT 10SM CLR 21/04 A3000 RMK A01
Conditions at: KAUN (AUBURN MUNI , CA, US) observed 1455 UTC 25 September 2021
Temperature: 21.0°C (70°F)
Dewpoint: 4.0°C (39°F) [RH = 33%]
Pressure (altimeter): 30.00 inches Hg (1016.0 mb)
Winds: calm
Visibility: 10 or more miles (16+ km)
Ceiling: at least 12,000 feet AGL
Clouds: sky clear below 12,000 feet AGL
Weather: automated observation with no human augmentation;
there may or may not be significant weather present at this time

METAR text: KAUN 251435Z AUTO 00000KT 10SM CLR 20/04 A2999 RMK A01
Conditions at: KAUN (AUBURN MUNI , CA, US) observed 1435 UTC 25 September 2021
Temperature: 20.0°C (68°F)
Dewpoint: 4.0°C (39°F) [RH = 35%]
Pressure (altimeter): 29.99 inches Hg (1015.7 mb)
Winds: calm
Visibility: 10 or more miles (16+ km)
Ceiling: at least 12,000 feet AGL
Clouds: sky clear below 12,000 feet AGL
Weather: automated observation with no human augmentation;
there may or may not be significant weather present at this time

METAR text: KAUN 251415Z AUTO 10005KT 10SM CLR 20/04 A2999 RMK A01
Conditions at: KAUN (AUBURN MUNI , CA, US) observed 1415 UTC 25 September 2021
Temperature: 20.0°C (68°F)
Dewpoint: 4.0°C (39°F) [RH = 35%]
Pressure (altimeter): 29.99 inches Hg (1015.7 mb)
Winds: from the E (100 degrees) at 6 MPH (5 knots; 2.6 m/s)
Visibility: 10 or more miles (16+ km)
Ceiling: at least 12,000 feet AGL
Clouds: sky clear below 12,000 feet AGL
Weather: automated observation with no human augmentation;
there may or may not be significant weather present at this time

METAR text: KAUN 251355Z AUTO 09008KT 10SM CLR 20/04 A2999 RMK A01
Conditions at: KAUN (AUBURN MUNI , CA, US) observed 1355 UTC 25 September 2021
Temperature: 20.0°C (68°F)
Dewpoint: 4.0°C (39°F) [RH = 35%]
Pressure (altimeter): 29.99 inches Hg (1015.7 mb)
Winds: from the E (90 degrees) at 9 MPH (8 knots; 4.1 m/s)
Visibility: 10 or more miles (16+ km)
Ceiling: at least 12,000 feet AGL
Clouds: sky clear below 12,000 feet AGL
Weather: automated observation with no human augmentation;
there may or may not be significant weather present at this time

METAR text: KAUN 251335Z AUTO 10007KT 10SM CLR 20/04 A2999 RMK A01
Conditions at: KAUN (AUBURN MUNI , CA, US) observed 1335 UTC 25 September 2021
Temperature: 20.0°C (68°F)
Dewpoint: 4.0°C (39°F) [RH = 35%]
Pressure (altimeter): 29.99 inches Hg (1015.7 mb)
Winds: from the E (100 degrees) at 8 MPH (7 knots; 3.6 m/s)
Visibility: 10 or more miles (16+ km)
Ceiling: at least 12,000 feet AGL
Clouds: sky clear below 12,000 feet AGL
Weather: automated observation with no human augmentation;
there may or may not be significant weather present at this time

METAR text: KAUN 251315Z AUTO 10008KT 10SM CLR 20/04 A2999 RMK A01
Conditions at: KAUN (AUBURN MUNI , CA, US) observed 1315 UTC 25 September 2021
Temperature: 20.0°C (68°F)
Dewpoint: 4.0°C (39°F) [RH = 35%]
Pressure (altimeter): 29.99 inches Hg (1015.7 mb)
Winds: from the E (100 degrees) at 9 MPH (8 knots; 4.1 m/s)
Visibility: 10 or more miles (16+ km)
Ceiling: at least 12,000 feet AGL
Clouds: sky clear below 12,000 feet AGL
Weather: automated observation with no human augmentation;
there may or may not be significant weather present at this time

METAR text: KAUN 251255Z AUTO 10008KT 10SM CLR 20/04 A2998 RMK A01
Conditions at: KAUN (AUBURN MUNI , CA, US) observed 1255 UTC 25 September 2021
Temperature: 20.0°C (68°F)
Dewpoint: 4.0°C (39°F) [RH = 35%]
Pressure (altimeter): 29.98 inches Hg (1015.3 mb)
Winds: from the E (100 degrees) at 9 MPH (8 knots; 4.1 m/s)
Visibility: 10 or more miles (16+ km)
Ceiling: at least 12,000 feet AGL
Clouds: sky clear below 12,000 feet AGL
Weather: automated observation with no human augmentation;
there may or may not be significant weather present at this time

METAR text: KAUN 251235Z AUTO 10006KT 10SM CLR 20/04 A2998 RMK A01
Conditions at: KAUN (AUBURN MUNI , CA, US) observed 1235 UTC 25 September 2021
Temperature: 20.0°C (68°F)
Dewpoint: 4.0°C (39°F) [RH = 35%]
Pressure (altimeter): 29.98 inches Hg (1015.3 mb)
Winds: from the E (100 degrees) at 7 MPH (6 knots; 3.1 m/s)
Visibility: 10 or more miles (16+ km)
Ceiling: at least 12,000 feet AGL
Clouds: sky clear below 12,000 feet AGL
Weather: automated observation with no human augmentation;
there may or may not be significant weather present at this time

METAR text: KAUN 251215Z AUTO 10007KT 10SM CLR 21/04 A2998 RMK A01
Conditions at: KAUN (AUBURN MUNI , CA, US) observed 1215 UTC 25 September 2021
Temperature: 21.0°C (70°F)
Dewpoint: 4.0°C (39°F) [RH = 33%]
Pressure (altimeter): 29.98 inches Hg (1015.3 mb)
Winds: from the E (100 degrees) at 8 MPH (7 knots; 3.6 m/s)
Visibility: 10 or more miles (16+ km)
Ceiling: at least 12,000 feet AGL
Clouds: sky clear below 12,000 feet AGL
Weather: automated observation with no human augmentation;
there may or may not be significant weather present at this time

METAR text: KAUN 251155Z AUTO 10008KT 10SM CLR 21/04 A2998 RMK A01
Conditions at: KAUN (AUBURN MUNI , CA, US) observed 1155 UTC 25 September 2021
Temperature: 21.0°C (70°F)
Dewpoint: 4.0°C (39°F) [RH = 33%]
Pressure (altimeter): 29.98 inches Hg (1015.3 mb)
Winds: from the E (100 degrees) at 9 MPH (8 knots; 4.1 m/s)
Visibility: 10 or more miles (16+ km)
Ceiling: at least 12,000 feet AGL
Clouds: sky clear below 12,000 feet AGL
Weather: automated observation with no human augmentation;
there may or may not be significant weather present at this time

METAR text: KAUN 251135Z AUTO 11008KT 10SM CLR 22/04 A2997 RMK A01
Conditions at: KAUN (AUBURN MUNI , CA, US) observed 1135 UTC 25 September 2021
Temperature: 22.0°C (72°F)
Dewpoint: 4.0°C (39°F) [RH = 31%]
Pressure (altimeter): 29.97 inches Hg (1015.0 mb)
Winds: from the ESE (110 degrees) at 9 MPH (8 knots; 4.1 m/s)
Visibility: 10 or more miles (16+ km)
Ceiling: at least 12,000 feet AGL
Clouds: sky clear below 12,000 feet AGL
Weather: automated observation with no human augmentation;
there may or may not be significant weather present at this time

METAR text: KAUN 251115Z AUTO 10010KT 10SM CLR 21/05 A2997 RMK A01
Conditions at: KAUN (AUBURN MUNI , CA, US) observed 1115 UTC 25 September 2021
Temperature: 21.0°C (70°F)
Dewpoint: 5.0°C (41°F) [RH = 35%]
Pressure (altimeter): 29.97 inches Hg (1015.0 mb)
Winds: from the E (100 degrees) at 12 MPH (10 knots; 5.1 m/s)
Visibility: 10 or more miles (16+ km)
Ceiling: at least 12,000 feet AGL
Clouds: sky clear below 12,000 feet AGL
Weather: automated observation with no human augmentation;
there may or may not be significant weather present at this time

METAR text: KAUN 251055Z AUTO 10010KT 10SM CLR 21/05 A2997 RMK A01
Conditions at: KAUN (AUBURN MUNI , CA, US) observed 1055 UTC 25 September 2021
Temperature: 21.0°C (70°F)
Dewpoint: 5.0°C (41°F) [RH = 35%]
Pressure (altimeter): 29.97 inches Hg (1015.0 mb)
Winds: from the E (100 degrees) at 12 MPH (10 knots; 5.1 m/s)
Visibility: 10 or more miles (16+ km)
Ceiling: at least 12,000 feet AGL
Clouds: sky clear below 12,000 feet AGL
Weather: automated observation with no human augmentation;
there may or may not be significant weather present at this time

METAR text: KAUN 251035Z AUTO 10009KT 10SM CLR 21/05 A2997 RMK A01
Conditions at: KAUN (AUBURN MUNI , CA, US) observed 1035 UTC 25 September 2021
Temperature: 21.0°C (70°F)
Dewpoint: 5.0°C (41°F) [RH = 35%]
Pressure (altimeter): 29.97 inches Hg (1015.0 mb)
Winds: from the E (100 degrees) at 10 MPH (9 knots; 4.6 m/s)
Visibility: 10 or more miles (16+ km)
Ceiling: at least 12,000 feet AGL
Clouds: sky clear below 12,000 feet AGL
Weather: automated observation with no human augmentation;
there may or may not be significant weather present at this time

METAR text: KAUN 251015Z AUTO 10009KT 10SM CLR 22/05 A2997 RMK A01
Conditions at: KAUN (AUBURN MUNI , CA, US) observed 1015 UTC 25 September 2021
Temperature: 22.0°C (72°F)
Dewpoint: 5.0°C (41°F) [RH = 33%]
Pressure (altimeter): 29.97 inches Hg (1015.0 mb)
Winds: from the E (100 degrees) at 10 MPH (9 knots; 4.6 m/s)
Visibility: 10 or more miles (16+ km)
Ceiling: at least 12,000 feet AGL
Clouds: sky clear below 12,000 feet AGL
Weather: automated observation with no human augmentation;
there may or may not be significant weather present at this time

METAR text: KAUN 250955Z AUTO 10008KT 10SM CLR 21/05 A2998 RMK A01
Conditions at: KAUN (AUBURN MUNI , CA, US) observed 0955 UTC 25 September 2021
Temperature: 21.0°C (70°F)
Dewpoint: 5.0°C (41°F) [RH = 35%]
Pressure (altimeter): 29.98 inches Hg (1015.3 mb)
Winds: from the E (100 degrees) at 9 MPH (8 knots; 4.1 m/s)
Visibility: 10 or more miles (16+ km)
Ceiling: at least 12,000 feet AGL
Clouds: sky clear below 12,000 feet AGL
Weather: automated observation with no human augmentation;
there may or may not be significant weather present at this time

METAR text: KAUN 250935Z AUTO 10010KT 10SM CLR 22/05 A2998 RMK A01
Conditions at: KAUN (AUBURN MUNI , CA, US) observed 0935 UTC 25 September 2021
Temperature: 22.0°C (72°F)
Dewpoint: 5.0°C (41°F) [RH = 33%]
Pressure (altimeter): 29.98 inches Hg (1015.3 mb)
Winds: from the E (100 degrees) at 12 MPH (10 knots; 5.1 m/s)
Visibility: 10 or more miles (16+ km)
Ceiling: at least 12,000 feet AGL
Clouds: sky clear below 12,000 feet AGL
Weather: automated observation with no human augmentation;
there may or may not be significant weather present at this time

METAR text: KAUN 250915Z AUTO 10009KT 10SM CLR 22/05 A2997 RMK A01
Conditions at: KAUN (AUBURN MUNI , CA, US) observed 0915 UTC 25 September 2021
Temperature: 22.0°C (72°F)
Dewpoint: 5.0°C (41°F) [RH = 33%]
Pressure (altimeter): 29.97 inches Hg (1015.0 mb)
Winds: from the E (100 degrees) at 10 MPH (9 knots; 4.6 m/s)
Visibility: 10 or more miles (16+ km)
Ceiling: at least 12,000 feet AGL
Clouds: sky clear below 12,000 feet AGL
Weather: automated observation with no human augmentation;
there may or may not be significant weather present at this time

METAR text: KAUN 250855Z AUTO 11008KT 10SM CLR 22/04 A2997 RMK A01
Conditions at: KAUN (AUBURN MUNI , CA, US) observed 0855 UTC 25 September 2021
Temperature: 22.0°C (72°F)
Dewpoint: 4.0°C (39°F) [RH = 31%]
Pressure (altimeter): 29.97 inches Hg (1015.0 mb)
Winds: from the ESE (110 degrees) at 9 MPH (8 knots; 4.1 m/s)
Visibility: 10 or more miles (16+ km)
Ceiling: at least 12,000 feet AGL
Clouds: sky clear below 12,000 feet AGL
Weather: automated observation with no human augmentation;
there may or may not be significant weather present at this time

METAR text: KAUN 250835Z AUTO 10008KT 10SM CLR 22/04 A2997 RMK A01
Conditions at: KAUN (AUBURN MUNI , CA, US) observed 0835 UTC 25 September 2021
Temperature: 22.0°C (72°F)
Dewpoint: 4.0°C (39°F) [RH = 31%]
Pressure (altimeter): 29.97 inches Hg (1015.0 mb)
Winds: from the E (100 degrees) at 9 MPH (8 knots; 4.1 m/s)
Visibility: 10 or more miles (16+ km)
Ceiling: at least 12,000 feet AGL
Clouds: sky clear below 12,000 feet AGL
Weather: automated observation with no human augmentation;
there may or may not be significant weather present at this time

METAR text: KAUN 250815Z AUTO 10007KT 10SM CLR 22/04 A2997 RMK A01
Conditions at: KAUN (AUBURN MUNI , CA, US) observed 0815 UTC 25 September 2021
Temperature: 22.0°C (72°F)
Dewpoint: 4.0°C (39°F) [RH = 31%]
Pressure (altimeter): 29.97 inches Hg (1015.0 mb)
Winds: from the E (100 degrees) at 8 MPH (7 knots; 3.6 m/s)
Visibility: 10 or more miles (16+ km)
Ceiling: at least 12,000 feet AGL
Clouds: sky clear below 12,000 feet AGL
Weather: automated observation with no human augmentation;
there may or may not be significant weather present at this time

METAR text: KAUN 250755Z AUTO 10008KT 10SM CLR 22/04 A2997 RMK A01
Conditions at: KAUN (AUBURN MUNI , CA, US) observed 0755 UTC 25 September 2021
Temperature: 22.0°C (72°F)
Dewpoint: 4.0°C (39°F) [RH = 31%]
Pressure (altimeter): 29.97 inches Hg (1015.0 mb)
Winds: from the E (100 degrees) at 9 MPH (8 knots; 4.1 m/s)
Visibility: 10 or more miles (16+ km)
Ceiling: at least 12,000 feet AGL
Clouds: sky clear below 12,000 feet AGL
Weather: automated observation with no human augmentation;
there may or may not be significant weather present at this time

METAR text: KAUN 250735Z AUTO 10008KT 10SM CLR 23/05 A2997 RMK A01
Conditions at: KAUN (AUBURN MUNI , CA, US) observed 0735 UTC 25 September 2021
Temperature: 23.0°C (73°F)
Dewpoint: 5.0°C (41°F) [RH = 31%]
Pressure (altimeter): 29.97 inches Hg (1015.0 mb)
Winds: from the E (100 degrees) at 9 MPH (8 knots; 4.1 m/s)
Visibility: 10 or more miles (16+ km)
Ceiling: at least 12,000 feet AGL
Clouds: sky clear below 12,000 feet AGL
Weather: automated observation with no human augmentation;
there may or may not be significant weather present at this time

METAR text: KAUN 250715Z AUTO 11009KT 10SM CLR 23/05 A2997 RMK A01
Conditions at: KAUN (AUBURN MUNI , CA, US) observed 0715 UTC 25 September 2021
Temperature: 23.0°C (73°F)
Dewpoint: 5.0°C (41°F) [RH = 31%]
Pressure (altimeter): 29.97 inches Hg (1015.0 mb)
Winds: from the ESE (110 degrees) at 10 MPH (9 knots; 4.6 m/s)
Visibility: 10 or more miles (16+ km)
Ceiling: at least 12,000 feet AGL
Clouds: sky clear below 12,000 feet AGL
Weather: automated observation with no human augmentation;
there may or may not be significant weather present at this time